sensor_id;sensor_type;location;lat;lon;timestamp;P1;durP1;ratioP1;P2;durP2;ratioP2
173;SDS011;75;48.784;9.364;2022-08-21T00:00:06;7.60;;;4.60;;
173;SDS011;75;48.784;9.364;2022-08-21T00:02:35;8.40;;;4.63;;
173;SDS011;75;48.784;9.364;2022-08-21T00:05:01;6.77;;;4.90;;
173;SDS011;75;48.784;9.364;2022-08-21T00:07:28;6.83;;;4.87;;
173;SDS011;75;48.784;9.364;2022-08-21T00:09:54;5.90;;;4.40;;
173;SDS011;75;48.784;9.364;2022-08-21T00:12:20;7.93;;;4.83;;
173;SDS011;75;48.784;9.364;2022-08-21T00:14:46;7.10;;;4.57;;
173;SDS011;75;48.784;9.364;2022-08-21T00:17:12;11.57;;;5.20;;
173;SDS011;75;48.784;9.364;2022-08-21T00:19:37;9.97;;;4.80;;
173;SDS011;75;48.784;9.364;2022-08-21T00:22:03;11.60;;;5.50;;
173;SDS011;75;48.784;9.364;2022-08-21T00:24:29;7.03;;;4.87;;
173;SDS011;75;48.784;9.364;2022-08-21T00:26:55;8.30;;;4.80;;
173;SDS011;75;48.784;9.364;2022-08-21T00:29:20;6.73;;;5.00;;
173;SDS011;75;48.784;9.364;2022-08-21T00:31:46;10.00;;;5.10;;
173;SDS011;75;48.784;9.364;2022-08-21T00:34:12;7.70;;;4.70;;
173;SDS011;75;48.784;9.364;2022-08-21T00:36:38;6.90;;;4.70;;
173;SDS011;75;48.784;9.364;2022-08-21T00:39:05;8.63;;;5.00;;
173;SDS011;75;48.784;9.364;2022-08-21T00:41:32;8.80;;;4.87;;
173;SDS011;75;48.784;9.364;2022-08-21T00:44:01;9.50;;;5.30;;
173;SDS011;75;48.784;9.364;2022-08-21T00:46:26;5.97;;;4.80;;
173;SDS011;75;48.784;9.364;2022-08-21T00:48:52;7.20;;;5.10;;
173;SDS011;75;48.784;9.364;2022-08-21T00:51:25;8.13;;;4.83;;
173;SDS011;75;48.784;9.364;2022-08-21T00:54:05;9.63;;;5.20;;
173;SDS011;75;48.784;9.364;2022-08-21T00:56:32;8.07;;;4.80;;
173;SDS011;75;48.784;9.364;2022-08-21T00:58:58;10.33;;;5.23;;
173;SDS011;75;48.784;9.364;2022-08-21T01:01:25;6.37;;;5.10;;
173;SDS011;75;48.784;9.364;2022-08-21T01:03:51;7.50;;;5.70;;
173;SDS011;75;48.784;9.364;2022-08-21T01:06:16;6.83;;;4.97;;
173;SDS011;75;48.784;9.364;2022-08-21T01:08:42;6.47;;;4.63;;
173;SDS011;75;48.784;9.364;2022-08-21T01:11:08;7.43;;;5.17;;
173;SDS011;75;48.784;9.364;2022-08-21T01:13:34;10.37;;;5.60;;
173;SDS011;75;48.784;9.364;2022-08-21T01:16:04;10.37;;;5.47;;
173;SDS011;75;48.784;9.364;2022-08-21T01:18:33;8.00;;;5.67;;
173;SDS011;75;48.784;9.364;2022-08-21T01:21:06;10.50;;;5.60;;
173;SDS011;75;48.784;9.364;2022-08-21T01:23:45;8.97;;;5.93;;
173;SDS011;75;48.784;9.364;2022-08-21T01:26:14;9.53;;;5.23;;
173;SDS011;75;48.784;9.364;2022-08-21T01:28:44;9.50;;;5.37;;
173;SDS011;75;48.784;9.364;2022-08-21T01:31:15;6.80;;;5.20;;
173;SDS011;75;48.784;9.364;2022-08-21T01:33:44;7.60;;;5.33;;
173;SDS011;75;48.784;9.364;2022-08-21T01:36:09;9.30;;;5.90;;
173;SDS011;75;48.784;9.364;2022-08-21T01:38:35;6.57;;;4.97;;
173;SDS011;75;48.784;9.364;2022-08-21T01:41:01;8.03;;;5.67;;
173;SDS011;75;48.784;9.364;2022-08-21T01:43:26;7.80;;;5.40;;
173;SDS011;75;48.784;9.364;2022-08-21T01:45:52;8.80;;;5.23;;
173;SDS011;75;48.784;9.364;2022-08-21T01:48:17;9.10;;;5.30;;
173;SDS011;75;48.784;9.364;2022-08-21T01:50:43;8.10;;;5.40;;
173;SDS011;75;48.784;9.364;2022-08-21T01:53:09;7.43;;;5.70;;
173;SDS011;75;48.784;9.364;2022-08-21T01:55:34;7.90;;;5.53;;
173;SDS011;75;48.784;9.364;2022-08-21T01:58:00;10.30;;;5.63;;
173;SDS011;75;48.784;9.364;2022-08-21T02:00:26;6.13;;;4.73;;
173;SDS011;75;48.784;9.364;2022-08-21T02:02:52;8.70;;;5.50;;
173;SDS011;75;48.784;9.364;2022-08-21T02:05:17;13.20;;;6.07;;
173;SDS011;75;48.784;9.364;2022-08-21T02:07:50;10.93;;;5.90;;
173;SDS011;75;48.784;9.364;2022-08-21T02:10:19;7.40;;;5.97;;
173;SDS011;75;48.784;9.364;2022-08-21T02:12:47;8.77;;;5.30;;
173;SDS011;75;48.784;9.364;2022-08-21T02:15:13;11.27;;;6.10;;
173;SDS011;75;48.784;9.364;2022-08-21T02:17:44;9.47;;;5.67;;
173;SDS011;75;48.784;9.364;2022-08-21T02:20:17;7.40;;;5.87;;
173;SDS011;75;48.784;9.364;2022-08-21T02:22:51;8.93;;;5.83;;
173;SDS011;75;48.784;9.364;2022-08-21T02:25:18;8.20;;;5.33;;
173;SDS011;75;48.784;9.364;2022-08-21T02:27:46;10.77;;;5.90;;
173;SDS011;75;48.784;9.364;2022-08-21T02:30:18;9.10;;;6.27;;
173;SDS011;75;48.784;9.364;2022-08-21T02:32:48;7.33;;;5.60;;
173;SDS011;75;48.784;9.364;2022-08-21T02:35:14;9.87;;;5.80;;
173;SDS011;75;48.784;9.364;2022-08-21T02:37:44;8.60;;;6.13;;
173;SDS011;75;48.784;9.364;2022-08-21T02:40:12;8.53;;;5.60;;
173;SDS011;75;48.784;9.364;2022-08-21T02:42:39;7.70;;;5.43;;
173;SDS011;75;48.784;9.364;2022-08-21T02:45:05;9.47;;;5.50;;
173;SDS011;75;48.784;9.364;2022-08-21T02:47:31;7.90;;;5.80;;
173;SDS011;75;48.784;9.364;2022-08-21T02:49:57;10.67;;;5.70;;
173;SDS011;75;48.784;9.364;2022-08-21T02:52:22;8.50;;;6.33;;
173;SDS011;75;48.784;9.364;2022-08-21T02:54:49;10.87;;;5.97;;
173;SDS011;75;48.784;9.364;2022-08-21T02:57:14;8.63;;;5.70;;
173;SDS011;75;48.784;9.364;2022-08-21T02:59:40;10.03;;;6.10;;
173;SDS011;75;48.784;9.364;2022-08-21T03:02:06;7.90;;;5.77;;
173;SDS011;75;48.784;9.364;2022-08-21T03:04:32;8.83;;;6.07;;
173;SDS011;75;48.784;9.364;2022-08-21T03:06:58;10.00;;;6.67;;
173;SDS011;75;48.784;9.364;2022-08-21T03:09:24;8.30;;;5.83;;
173;SDS011;75;48.784;9.364;2022-08-21T03:11:50;9.10;;;6.30;;
173;SDS011;75;48.784;9.364;2022-08-21T03:14:16;11.27;;;6.40;;
173;SDS011;75;48.784;9.364;2022-08-21T03:16:43;9.27;;;6.10;;
173;SDS011;75;48.784;9.364;2022-08-21T03:19:09;11.93;;;6.73;;
173;SDS011;75;48.784;9.364;2022-08-21T03:21:35;8.00;;;5.97;;
173;SDS011;75;48.784;9.364;2022-08-21T03:24:00;10.03;;;6.30;;
173;SDS011;75;48.784;9.364;2022-08-21T03:26:26;9.03;;;6.37;;
173;SDS011;75;48.784;9.364;2022-08-21T03:28:52;10.23;;;6.80;;
173;SDS011;75;48.784;9.364;2022-08-21T03:31:18;12.00;;;6.60;;
173;SDS011;75;48.784;9.364;2022-08-21T03:33:44;9.20;;;6.80;;
173;SDS011;75;48.784;9.364;2022-08-21T03:36:09;10.30;;;6.47;;
173;SDS011;75;48.784;9.364;2022-08-21T03:38:36;11.43;;;6.40;;
173;SDS011;75;48.784;9.364;2022-08-21T03:41:03;14.43;;;6.07;;
173;SDS011;75;48.784;9.364;2022-08-21T03:43:29;9.17;;;7.03;;
173;SDS011;75;48.784;9.364;2022-08-21T03:45:56;11.07;;;7.57;;
173;SDS011;75;48.784;9.364;2022-08-21T03:48:22;9.23;;;6.80;;
173;SDS011;75;48.784;9.364;2022-08-21T03:50:48;11.80;;;6.50;;
173;SDS011;75;48.784;9.364;2022-08-21T03:53:17;11.53;;;6.77;;
173;SDS011;75;48.784;9.364;2022-08-21T03:55:47;9.80;;;6.37;;
173;SDS011;75;48.784;9.364;2022-08-21T03:58:18;10.07;;;7.00;;
173;SDS011;75;48.784;9.364;2022-08-21T04:00:46;11.50;;;7.23;;
173;SDS011;75;48.784;9.364;2022-08-21T04:03:15;8.60;;;7.00;;
173;SDS011;75;48.784;9.364;2022-08-21T04:05:41;10.70;;;7.23;;
173;SDS011;75;48.784;9.364;2022-08-21T04:08:07;8.73;;;6.10;;
173;SDS011;75;48.784;9.364;2022-08-21T04:10:34;12.20;;;6.73;;
173;SDS011;75;48.784;9.364;2022-08-21T04:13:01;7.83;;;6.10;;
173;SDS011;75;48.784;9.364;2022-08-21T04:15:27;10.37;;;6.60;;
173;SDS011;75;48.784;9.364;2022-08-21T04:17:53;9.17;;;7.20;;
173;SDS011;75;48.784;9.364;2022-08-21T04:20:20;7.83;;;6.57;;
173;SDS011;75;48.784;9.364;2022-08-21T04:22:46;9.33;;;6.53;;
173;SDS011;75;48.784;9.364;2022-08-21T04:25:13;10.57;;;6.30;;
173;SDS011;75;48.784;9.364;2022-08-21T04:27:40;9.60;;;6.47;;
173;SDS011;75;48.784;9.364;2022-08-21T04:30:06;9.17;;;6.57;;
173;SDS011;75;48.784;9.364;2022-08-21T04:32:34;9.30;;;6.77;;
173;SDS011;75;48.784;9.364;2022-08-21T04:35:03;11.67;;;7.20;;
173;SDS011;75;48.784;9.364;2022-08-21T04:37:30;11.07;;;6.80;;
173;SDS011;75;48.784;9.364;2022-08-21T04:39:56;9.47;;;6.27;;
173;SDS011;75;48.784;9.364;2022-08-21T04:42:26;12.77;;;6.23;;
173;SDS011;75;48.784;9.364;2022-08-21T04:44:53;8.73;;;6.40;;
173;SDS011;75;48.784;9.364;2022-08-21T04:47:19;8.83;;;6.10;;
173;SDS011;75;48.784;9.364;2022-08-21T04:49:45;9.10;;;6.50;;
173;SDS011;75;48.784;9.364;2022-08-21T04:52:12;9.30;;;6.60;;
173;SDS011;75;48.784;9.364;2022-08-21T04:54:41;9.90;;;6.20;;
173;SDS011;75;48.784;9.364;2022-08-21T04:57:08;9.23;;;6.90;;
173;SDS011;75;48.784;9.364;2022-08-21T04:59:37;9.47;;;6.50;;
173;SDS011;75;48.784;9.364;2022-08-21T05:02:07;10.00;;;6.30;;
173;SDS011;75;48.784;9.364;2022-08-21T05:04:34;14.43;;;6.90;;
173;SDS011;75;48.784;9.364;2022-08-21T05:07:05;11.40;;;6.83;;
173;SDS011;75;48.784;9.364;2022-08-21T05:09:35;11.50;;;6.90;;
173;SDS011;75;48.784;9.364;2022-08-21T05:12:03;13.70;;;6.63;;
173;SDS011;75;48.784;9.364;2022-08-21T05:14:29;8.93;;;6.40;;
173;SDS011;75;48.784;9.364;2022-08-21T05:16:55;10.97;;;6.63;;
173;SDS011;75;48.784;9.364;2022-08-21T05:19:21;8.70;;;6.53;;
173;SDS011;75;48.784;9.364;2022-08-21T05:21:48;9.67;;;6.60;;
173;SDS011;75;48.784;9.364;2022-08-21T05:24:14;17.67;;;6.70;;
173;SDS011;75;48.784;9.364;2022-08-21T05:26:40;10.07;;;7.00;;
173;SDS011;75;48.784;9.364;2022-08-21T05:29:07;8.40;;;6.37;;
173;SDS011;75;48.784;9.364;2022-08-21T05:31:32;7.07;;;5.90;;
173;SDS011;75;48.784;9.364;2022-08-21T05:33:58;10.20;;;6.57;;
173;SDS011;75;48.784;9.364;2022-08-21T05:36:24;8.60;;;6.37;;
173;SDS011;75;48.784;9.364;2022-08-21T05:38:49;6.47;;;5.37;;
173;SDS011;75;48.784;9.364;2022-08-21T05:41:15;8.43;;;6.00;;
173;SDS011;75;48.784;9.364;2022-08-21T05:43:41;10.10;;;6.17;;
173;SDS011;75;48.784;9.364;2022-08-21T05:46:07;10.17;;;6.00;;
173;SDS011;75;48.784;9.364;2022-08-21T05:48:34;7.53;;;6.10;;
173;SDS011;75;48.784;9.364;2022-08-21T05:51:04;9.20;;;6.20;;
173;SDS011;75;48.784;9.364;2022-08-21T05:53:32;9.07;;;5.97;;
173;SDS011;75;48.784;9.364;2022-08-21T05:55:58;7.60;;;5.80;;
173;SDS011;75;48.784;9.364;2022-08-21T05:58:23;7.83;;;5.60;;
173;SDS011;75;48.784;9.364;2022-08-21T06:00:49;9.33;;;6.07;;
173;SDS011;75;48.784;9.364;2022-08-21T06:03:18;9.63;;;5.93;;
173;SDS011;75;48.784;9.364;2022-08-21T06:05:45;8.27;;;5.27;;
173;SDS011;75;48.784;9.364;2022-08-21T06:08:11;10.03;;;5.63;;
173;SDS011;75;48.784;9.364;2022-08-21T06:10:37;7.80;;;5.60;;
173;SDS011;75;48.784;9.364;2022-08-21T06:13:03;8.77;;;6.17;;
173;SDS011;75;48.784;9.364;2022-08-21T06:15:29;6.90;;;5.80;;
173;SDS011;75;48.784;9.364;2022-08-21T06:17:55;8.37;;;5.60;;
173;SDS011;75;48.784;9.364;2022-08-21T06:20:21;8.00;;;5.23;;
173;SDS011;75;48.784;9.364;2022-08-21T06:22:48;8.13;;;5.50;;
173;SDS011;75;48.784;9.364;2022-08-21T06:25:13;7.10;;;5.00;;
173;SDS011;75;48.784;9.364;2022-08-21T06:27:39;8.77;;;5.50;;
173;SDS011;75;48.784;9.364;2022-08-21T06:30:05;7.23;;;5.37;;
173;SDS011;75;48.784;9.364;2022-08-21T06:32:31;7.90;;;5.30;;
173;SDS011;75;48.784;9.364;2022-08-21T06:34:57;7.90;;;5.50;;
173;SDS011;75;48.784;9.364;2022-08-21T06:37:23;7.67;;;5.60;;
173;SDS011;75;48.784;9.364;2022-08-21T06:39:48;6.40;;;5.10;;
173;SDS011;75;48.784;9.364;2022-08-21T06:42:15;6.67;;;5.07;;
173;SDS011;75;48.784;9.364;2022-08-21T06:44:42;9.13;;;5.77;;
173;SDS011;75;48.784;9.364;2022-08-21T06:47:08;7.30;;;5.53;;
173;SDS011;75;48.784;9.364;2022-08-21T06:49:34;9.00;;;4.80;;
173;SDS011;75;48.784;9.364;2022-08-21T06:52:00;7.20;;;5.50;;
173;SDS011;75;48.784;9.364;2022-08-21T06:54:26;8.80;;;5.07;;
173;SDS011;75;48.784;9.364;2022-08-21T06:56:51;8.40;;;5.23;;
173;SDS011;75;48.784;9.364;2022-08-21T06:59:17;8.10;;;5.27;;
173;SDS011;75;48.784;9.364;2022-08-21T07:01:43;9.90;;;5.07;;
173;SDS011;75;48.784;9.364;2022-08-21T07:04:09;7.07;;;4.90;;
173;SDS011;75;48.784;9.364;2022-08-21T07:06:35;7.20;;;5.20;;
173;SDS011;75;48.784;9.364;2022-08-21T07:09:01;7.03;;;5.17;;
173;SDS011;75;48.784;9.364;2022-08-21T07:11:27;9.07;;;5.00;;
173;SDS011;75;48.784;9.364;2022-08-21T07:13:53;6.33;;;4.93;;
173;SDS011;75;48.784;9.364;2022-08-21T07:16:21;6.00;;;5.43;;
173;SDS011;75;48.784;9.364;2022-08-21T07:18:47;8.10;;;5.73;;
173;SDS011;75;48.784;9.364;2022-08-21T07:21:13;6.73;;;5.43;;
173;SDS011;75;48.784;9.364;2022-08-21T07:23:42;8.70;;;5.87;;
173;SDS011;75;48.784;9.364;2022-08-21T07:26:10;11.40;;;6.20;;
173;SDS011;75;48.784;9.364;2022-08-21T07:28:36;9.70;;;6.10;;
173;SDS011;75;48.784;9.364;2022-08-21T07:31:02;9.30;;;5.63;;
173;SDS011;75;48.784;9.364;2022-08-21T07:33:29;9.13;;;5.60;;
173;SDS011;75;48.784;9.364;2022-08-21T07:35:57;9.87;;;5.50;;
173;SDS011;75;48.784;9.364;2022-08-21T07:38:23;7.97;;;5.93;;
173;SDS011;75;48.784;9.364;2022-08-21T07:40:49;8.20;;;5.90;;
173;SDS011;75;48.784;9.364;2022-08-21T07:43:17;8.67;;;5.87;;
173;SDS011;75;48.784;9.364;2022-08-21T07:45:43;7.10;;;5.93;;
173;SDS011;75;48.784;9.364;2022-08-21T07:48:09;7.80;;;5.40;;
173;SDS011;75;48.784;9.364;2022-08-21T07:50:35;9.77;;;6.17;;
173;SDS011;75;48.784;9.364;2022-08-21T07:53:01;10.00;;;6.20;;
173;SDS011;75;48.784;9.364;2022-08-21T07:55:27;8.10;;;5.90;;
173;SDS011;75;48.784;9.364;2022-08-21T07:57:53;10.67;;;6.27;;
173;SDS011;75;48.784;9.364;2022-08-21T08:00:20;10.80;;;6.20;;
173;SDS011;75;48.784;9.364;2022-08-21T08:02:53;10.37;;;6.37;;
173;SDS011;75;48.784;9.364;2022-08-21T08:05:20;11.77;;;6.47;;
173;SDS011;75;48.784;9.364;2022-08-21T08:07:48;10.27;;;5.83;;
173;SDS011;75;48.784;9.364;2022-08-21T08:10:13;9.37;;;6.20;;
173;SDS011;75;48.784;9.364;2022-08-21T08:12:42;9.03;;;6.00;;
173;SDS011;75;48.784;9.364;2022-08-21T08:15:10;8.90;;;5.87;;
173;SDS011;75;48.784;9.364;2022-08-21T08:17:39;12.67;;;6.30;;
173;SDS011;75;48.784;9.364;2022-08-21T08:20:05;9.23;;;6.27;;
173;SDS011;75;48.784;9.364;2022-08-21T08:22:33;11.07;;;6.00;;
173;SDS011;75;48.784;9.364;2022-08-21T08:25:00;10.43;;;6.20;;
173;SDS011;75;48.784;9.364;2022-08-21T08:27:26;9.97;;;6.07;;
173;SDS011;75;48.784;9.364;2022-08-21T08:29:52;10.10;;;6.00;;
173;SDS011;75;48.784;9.364;2022-08-21T08:32:18;13.17;;;6.00;;
173;SDS011;75;48.784;9.364;2022-08-21T08:34:44;10.70;;;6.10;;
173;SDS011;75;48.784;9.364;2022-08-21T08:37:12;8.10;;;6.20;;
173;SDS011;75;48.784;9.364;2022-08-21T08:39:38;9.47;;;6.07;;
173;SDS011;75;48.784;9.364;2022-08-21T08:42:08;10.97;;;6.30;;
173;SDS011;75;48.784;9.364;2022-08-21T08:44:40;9.87;;;6.23;;
173;SDS011;75;48.784;9.364;2022-08-21T08:47:07;9.70;;;6.30;;
173;SDS011;75;48.784;9.364;2022-08-21T08:52:29;8.87;;;6.30;;
173;SDS011;75;48.784;9.364;2022-08-21T08:55:07;9.60;;;6.23;;
173;SDS011;75;48.784;9.364;2022-08-21T08:57:44;9.50;;;5.93;;
173;SDS011;75;48.784;9.364;2022-08-21T09:00:12;8.60;;;5.73;;
173;SDS011;75;48.784;9.364;2022-08-21T09:02:41;9.43;;;6.03;;
173;SDS011;75;48.784;9.364;2022-08-21T09:05:18;10.70;;;6.07;;
173;SDS011;75;48.784;9.364;2022-08-21T09:07:59;8.70;;;5.87;;
173;SDS011;75;48.784;9.364;2022-08-21T09:11:05;7.60;;;5.60;;
173;SDS011;75;48.784;9.364;2022-08-21T09:27:33;11.23;;;6.00;;
173;SDS011;75;48.784;9.364;2022-08-21T09:29:59;11.20;;;6.53;;
173;SDS011;75;48.784;9.364;2022-08-21T09:32:29;8.93;;;5.90;;
173;SDS011;75;48.784;9.364;2022-08-21T09:37:35;10.47;;;6.53;;
173;SDS011;75;48.784;9.364;2022-08-21T09:40:23;9.70;;;6.13;;
173;SDS011;75;48.784;9.364;2022-08-21T09:43:21;10.43;;;6.63;;
173;SDS011;75;48.784;9.364;2022-08-21T09:45:46;9.90;;;6.60;;
173;SDS011;75;48.784;9.364;2022-08-21T09:48:24;10.17;;;5.87;;
173;SDS011;75;48.784;9.364;2022-08-21T09:50:50;11.80;;;6.07;;
173;SDS011;75;48.784;9.364;2022-08-21T09:53:27;9.23;;;6.37;;
173;SDS011;75;48.784;9.364;2022-08-21T09:56:05;8.77;;;5.93;;
173;SDS011;75;48.784;9.364;2022-08-21T09:59:11;9.70;;;6.17;;
173;SDS011;75;48.784;9.364;2022-08-21T10:01:43;8.70;;;5.97;;
173;SDS011;75;48.784;9.364;2022-08-21T10:04:10;8.60;;;5.80;;
173;SDS011;75;48.784;9.364;2022-08-21T10:06:37;8.03;;;5.20;;
173;SDS011;75;48.784;9.364;2022-08-21T10:09:08;8.37;;;5.63;;
173;SDS011;75;48.784;9.364;2022-08-21T10:11:39;9.83;;;5.37;;
173;SDS011;75;48.784;9.364;2022-08-21T10:17:01;8.77;;;5.23;;
173;SDS011;75;48.784;9.364;2022-08-21T10:25:05;11.43;;;6.67;;
173;SDS011;75;48.784;9.364;2022-08-21T10:30:17;9.00;;;5.43;;
173;SDS011;75;48.784;9.364;2022-08-21T10:36:02;10.77;;;5.57;;
173;SDS011;75;48.784;9.364;2022-08-21T10:38:58;9.93;;;6.20;;
173;SDS011;75;48.784;9.364;2022-08-21T10:42:02;8.20;;;5.27;;
173;SDS011;75;48.784;9.364;2022-08-21T10:47:16;11.73;;;5.10;;
173;SDS011;75;48.784;9.364;2022-08-21T10:49:59;7.80;;;5.13;;
173;SDS011;75;48.784;9.364;2022-08-21T10:55:25;7.63;;;5.27;;
173;SDS011;75;48.784;9.364;2022-08-21T10:58:04;7.97;;;5.07;;
173;SDS011;75;48.784;9.364;2022-08-21T11:03:20;8.80;;;5.50;;
173;SDS011;75;48.784;9.364;2022-08-21T11:06:00;8.80;;;5.10;;
173;SDS011;75;48.784;9.364;2022-08-21T11:08:44;8.73;;;5.30;;
173;SDS011;75;48.784;9.364;2022-08-21T11:11:26;11.97;;;5.10;;
173;SDS011;75;48.784;9.364;2022-08-21T11:16:37;8.67;;;5.03;;
173;SDS011;75;48.784;9.364;2022-08-21T11:19:41;10.80;;;4.70;;
173;SDS011;75;48.784;9.364;2022-08-21T11:22:05;9.50;;;5.20;;
173;SDS011;75;48.784;9.364;2022-08-21T11:24:50;9.60;;;4.70;;
173;SDS011;75;48.784;9.364;2022-08-21T11:27:36;10.23;;;5.10;;
173;SDS011;75;48.784;9.364;2022-08-21T11:30:14;9.03;;;5.10;;
173;SDS011;75;48.784;9.364;2022-08-21T11:38:13;11.70;;;5.20;;
173;SDS011;75;48.784;9.364;2022-08-21T11:43:43;7.53;;;4.70;;
173;SDS011;75;48.784;9.364;2022-08-21T11:57:35;7.43;;;4.67;;
173;SDS011;75;48.784;9.364;2022-08-21T12:00:33;10.40;;;4.50;;
173;SDS011;75;48.784;9.364;2022-08-21T12:03:24;7.40;;;4.30;;
173;SDS011;75;48.784;9.364;2022-08-21T12:06:09;5.97;;;3.83;;
173;SDS011;75;48.784;9.364;2022-08-21T12:08:38;7.30;;;4.30;;
173;SDS011;75;48.784;9.364;2022-08-21T12:13:53;6.80;;;4.27;;
173;SDS011;75;48.784;9.364;2022-08-21T12:19:04;6.50;;;4.40;;
173;SDS011;75;48.784;9.364;2022-08-21T12:21:32;6.40;;;4.33;;
173;SDS011;75;48.784;9.364;2022-08-21T12:26:53;10.83;;;5.10;;
173;SDS011;75;48.784;9.364;2022-08-21T12:29:30;6.60;;;4.37;;
173;SDS011;75;48.784;9.364;2022-08-21T12:32:02;8.00;;;4.73;;
173;SDS011;75;48.784;9.364;2022-08-21T12:34:51;6.97;;;4.50;;
173;SDS011;75;48.784;9.364;2022-08-21T12:37:22;7.23;;;4.67;;
173;SDS011;75;48.784;9.364;2022-08-21T12:39:54;8.33;;;4.03;;
173;SDS011;75;48.784;9.364;2022-08-21T12:42:30;5.63;;;4.10;;
173;SDS011;75;48.784;9.364;2022-08-21T12:45:07;5.83;;;3.90;;
173;SDS011;75;48.784;9.364;2022-08-21T12:47:49;7.20;;;4.40;;
173;SDS011;75;48.784;9.364;2022-08-21T12:50:24;8.80;;;4.73;;
173;SDS011;75;48.784;9.364;2022-08-21T12:53:21;7.77;;;4.70;;
173;SDS011;75;48.784;9.364;2022-08-21T12:55:57;10.50;;;4.90;;
173;SDS011;75;48.784;9.364;2022-08-21T12:58:34;6.67;;;4.43;;
173;SDS011;75;48.784;9.364;2022-08-21T13:01:07;10.23;;;4.43;;
173;SDS011;75;48.784;9.364;2022-08-21T13:03:39;8.83;;;4.70;;
173;SDS011;75;48.784;9.364;2022-08-21T13:06:06;6.90;;;4.30;;
173;SDS011;75;48.784;9.364;2022-08-21T13:08:37;7.90;;;4.50;;
173;SDS011;75;48.784;9.364;2022-08-21T13:11:04;7.77;;;4.90;;
173;SDS011;75;48.784;9.364;2022-08-21T13:13:31;6.07;;;4.07;;
173;SDS011;75;48.784;9.364;2022-08-21T13:16:05;7.67;;;4.67;;
173;SDS011;75;48.784;9.364;2022-08-21T13:21:18;8.10;;;4.33;;
173;SDS011;75;48.784;9.364;2022-08-21T13:23:45;7.93;;;4.40;;
173;SDS011;75;48.784;9.364;2022-08-21T13:26:15;6.90;;;4.50;;
173;SDS011;75;48.784;9.364;2022-08-21T13:28:46;8.70;;;4.63;;
173;SDS011;75;48.784;9.364;2022-08-21T13:31:18;8.07;;;4.53;;
173;SDS011;75;48.784;9.364;2022-08-21T13:33:46;8.37;;;4.77;;
173;SDS011;75;48.784;9.364;2022-08-21T13:36:46;6.97;;;4.10;;
173;SDS011;75;48.784;9.364;2022-08-21T13:39:15;7.93;;;4.73;;
173;SDS011;75;48.784;9.364;2022-08-21T13:41:44;7.60;;;4.40;;
173;SDS011;75;48.784;9.364;2022-08-21T13:44:16;7.37;;;4.40;;
173;SDS011;75;48.784;9.364;2022-08-21T13:46:56;9.20;;;5.00;;
173;SDS011;75;48.784;9.364;2022-08-21T13:49:26;9.10;;;4.70;;
173;SDS011;75;48.784;9.364;2022-08-21T13:51:56;9.93;;;4.80;;
173;SDS011;75;48.784;9.364;2022-08-21T13:54:35;6.90;;;4.63;;
173;SDS011;75;48.784;9.364;2022-08-21T13:57:14;6.50;;;4.33;;
173;SDS011;75;48.784;9.364;2022-08-21T13:59:45;7.70;;;4.57;;
173;SDS011;75;48.784;9.364;2022-08-21T14:02:15;5.90;;;4.50;;
173;SDS011;75;48.784;9.364;2022-08-21T14:05:05;7.10;;;4.37;;
173;SDS011;75;48.784;9.364;2022-08-21T14:07:33;6.43;;;4.37;;
173;SDS011;75;48.784;9.364;2022-08-21T14:10:06;6.70;;;4.97;;
173;SDS011;75;48.784;9.364;2022-08-21T14:12:41;6.43;;;4.60;;
173;SDS011;75;48.784;9.364;2022-08-21T14:15:09;6.70;;;5.20;;
173;SDS011;75;48.784;9.364;2022-08-21T14:17:39;7.57;;;4.37;;
173;SDS011;75;48.784;9.364;2022-08-21T14:20:07;5.97;;;4.17;;
173;SDS011;75;48.784;9.364;2022-08-21T14:22:49;11.07;;;4.83;;
173;SDS011;75;48.784;9.364;2022-08-21T14:27:48;7.20;;;4.30;;
173;SDS011;75;48.784;9.364;2022-08-21T14:32:43;7.90;;;4.73;;
173;SDS011;75;48.784;9.364;2022-08-21T14:35:10;7.70;;;4.37;;
173;SDS011;75;48.784;9.364;2022-08-21T14:37:36;6.77;;;4.13;;
173;SDS011;75;48.784;9.364;2022-08-21T14:40:02;7.03;;;4.27;;
173;SDS011;75;48.784;9.364;2022-08-21T14:42:29;6.33;;;4.30;;
173;SDS011;75;48.784;9.364;2022-08-21T14:44:59;7.93;;;4.60;;
173;SDS011;75;48.784;9.364;2022-08-21T14:47:27;7.93;;;4.43;;
173;SDS011;75;48.784;9.364;2022-08-21T14:49:53;7.80;;;4.47;;
173;SDS011;75;48.784;9.364;2022-08-21T14:52:19;6.90;;;4.23;;
173;SDS011;75;48.784;9.364;2022-08-21T14:54:45;6.80;;;4.53;;
173;SDS011;75;48.784;9.364;2022-08-21T14:57:11;6.60;;;4.20;;
173;SDS011;75;48.784;9.364;2022-08-21T14:59:37;9.37;;;5.50;;
173;SDS011;75;48.784;9.364;2022-08-21T15:02:04;6.67;;;4.70;;
173;SDS011;75;48.784;9.364;2022-08-21T15:04:31;6.73;;;4.07;;
173;SDS011;75;48.784;9.364;2022-08-21T15:06:57;6.00;;;4.10;;
173;SDS011;75;48.784;9.364;2022-08-21T15:09:23;8.70;;;4.50;;
173;SDS011;75;48.784;9.364;2022-08-21T15:11:49;6.27;;;4.27;;
173;SDS011;75;48.784;9.364;2022-08-21T15:14:22;6.93;;;3.93;;
173;SDS011;75;48.784;9.364;2022-08-21T15:16:51;7.33;;;4.40;;
173;SDS011;75;48.784;9.364;2022-08-21T15:19:17;7.50;;;4.70;;
173;SDS011;75;48.784;9.364;2022-08-21T15:21:42;5.73;;;4.30;;
173;SDS011;75;48.784;9.364;2022-08-21T15:24:08;7.20;;;4.60;;
173;SDS011;75;48.784;9.364;2022-08-21T15:26:34;6.40;;;3.90;;
173;SDS011;75;48.784;9.364;2022-08-21T15:29:01;7.73;;;4.17;;
173;SDS011;75;48.784;9.364;2022-08-21T15:31:27;6.40;;;4.20;;
173;SDS011;75;48.784;9.364;2022-08-21T15:33:53;7.20;;;4.30;;
173;SDS011;75;48.784;9.364;2022-08-21T15:36:20;5.40;;;3.97;;
173;SDS011;75;48.784;9.364;2022-08-21T15:38:46;8.87;;;5.50;;
173;SDS011;75;48.784;9.364;2022-08-21T15:41:12;8.50;;;4.20;;
173;SDS011;75;48.784;9.364;2022-08-21T15:43:48;7.30;;;4.20;;
173;SDS011;75;48.784;9.364;2022-08-21T15:46:16;6.53;;;4.13;;
173;SDS011;75;48.784;9.364;2022-08-21T15:48:43;6.27;;;4.13;;
173;SDS011;75;48.784;9.364;2022-08-21T15:51:11;5.40;;;4.20;;
173;SDS011;75;48.784;9.364;2022-08-21T15:53:37;5.37;;;4.00;;
173;SDS011;75;48.784;9.364;2022-08-21T15:56:11;7.50;;;4.20;;
173;SDS011;75;48.784;9.364;2022-08-21T15:58:48;8.77;;;4.50;;
173;SDS011;75;48.784;9.364;2022-08-21T16:01:15;8.23;;;4.80;;
173;SDS011;75;48.784;9.364;2022-08-21T16:03:41;6.70;;;4.70;;
173;SDS011;75;48.784;9.364;2022-08-21T16:06:10;7.20;;;4.27;;
173;SDS011;75;48.784;9.364;2022-08-21T16:08:36;10.37;;;5.07;;
173;SDS011;75;48.784;9.364;2022-08-21T16:11:01;8.63;;;4.47;;
173;SDS011;75;48.784;9.364;2022-08-21T16:13:28;6.43;;;4.30;;
173;SDS011;75;48.784;9.364;2022-08-21T16:15:59;8.50;;;4.57;;
173;SDS011;75;48.784;9.364;2022-08-21T16:18:25;9.13;;;4.47;;
173;SDS011;75;48.784;9.364;2022-08-21T16:20:51;8.23;;;4.90;;
173;SDS011;75;48.784;9.364;2022-08-21T16:23:17;7.73;;;4.50;;
173;SDS011;75;48.784;9.364;2022-08-21T16:25:43;6.13;;;4.63;;
173;SDS011;75;48.784;9.364;2022-08-21T16:28:10;7.90;;;4.33;;
173;SDS011;75;48.784;9.364;2022-08-21T16:30:39;6.90;;;4.43;;
173;SDS011;75;48.784;9.364;2022-08-21T16:33:05;6.90;;;4.47;;
173;SDS011;75;48.784;9.364;2022-08-21T16:35:35;8.27;;;4.87;;
173;SDS011;75;48.784;9.364;2022-08-21T16:38:00;8.73;;;4.67;;
173;SDS011;75;48.784;9.364;2022-08-21T16:40:26;5.30;;;3.97;;
173;SDS011;75;48.784;9.364;2022-08-21T16:42:52;8.93;;;4.30;;
173;SDS011;75;48.784;9.364;2022-08-21T16:45:18;7.40;;;4.30;;
173;SDS011;75;48.784;9.364;2022-08-21T16:47:46;7.20;;;4.30;;
173;SDS011;75;48.784;9.364;2022-08-21T16:50:12;7.13;;;4.20;;
173;SDS011;75;48.784;9.364;2022-08-21T16:52:41;5.30;;;3.97;;
173;SDS011;75;48.784;9.364;2022-08-21T16:55:07;6.13;;;4.63;;
173;SDS011;75;48.784;9.364;2022-08-21T16:57:34;6.00;;;4.50;;
173;SDS011;75;48.784;9.364;2022-08-21T17:00:00;8.97;;;4.60;;
173;SDS011;75;48.784;9.364;2022-08-21T17:02:30;5.87;;;4.10;;
173;SDS011;75;48.784;9.364;2022-08-21T17:04:59;8.70;;;4.47;;
173;SDS011;75;48.784;9.364;2022-08-21T17:07:26;6.17;;;4.20;;
173;SDS011;75;48.784;9.364;2022-08-21T17:09:52;7.40;;;4.40;;
173;SDS011;75;48.784;9.364;2022-08-21T17:12:18;5.63;;;4.13;;
173;SDS011;75;48.784;9.364;2022-08-21T17:14:44;6.80;;;4.17;;
173;SDS011;75;48.784;9.364;2022-08-21T17:17:11;6.87;;;4.87;;
173;SDS011;75;48.784;9.364;2022-08-21T17:19:37;7.00;;;4.40;;
173;SDS011;75;48.784;9.364;2022-08-21T17:22:04;7.67;;;4.60;;
173;SDS011;75;48.784;9.364;2022-08-21T17:24:30;6.83;;;4.40;;
173;SDS011;75;48.784;9.364;2022-08-21T17:26:55;5.70;;;4.27;;
173;SDS011;75;48.784;9.364;2022-08-21T17:29:24;6.43;;;4.20;;